Time;durP1;ratioP1;P1;durP2;ratioP2;P2;SDS_P1;SDS_P2;PMS_P1;PMS_P2;Temp;Humidity;BMP_temperature;BMP_pressure;BME280_temperature;BME280_humidity;BME280_pressure;Samples;Min_cycle;Max_cycle;Signal;HPM_P1;HPM_P2
2022/03/25 00:02:09;;;;;;;17.00;8.05;;;;;;;8.60;29.59;95776.00;5105249;28;20054;-69
2022/03/25 00:04:35;;;;;;;16.52;8.38;;;;;;;8.60;29.23;95776.00;5105501;28;20077;-68
2022/03/25 00:07:00;;;;;;;13.80;8.32;;;;;;;8.51;29.75;95773.22;5106421;28;20051;-68
2022/03/25 00:09:26;;;;;;;15.40;8.57;;;;;;;8.50;29.39;95771.56;5105265;28;20148;-69
2022/03/25 00:11:53;;;;;;;17.05;8.13;;;;;;;8.51;29.73;95767.88;5106573;28;20020;-68
2022/03/25 00:14:18;;;;;;;12.93;7.45;;;;;;;8.49;30.07;95761.88;5103718;28;20027;-69
2022/03/25 00:16:44;;;;;;;12.40;8.07;;;;;;;8.47;30.02;95765.69;5105953;28;20110;-69
2022/03/25 00:19:09;;;;;;;12.02;7.70;;;;;;;8.42;30.62;95758.13;5105410;28;20028;-69
2022/03/25 00:21:36;;;;;;;13.52;8.23;;;;;;;8.32;30.45;95757.41;5105458;28;20023;-69
2022/03/25 00:24:01;;;;;;;13.85;7.93;;;;;;;8.31;30.45;95750.34;5105829;28;20505;-68
2022/03/25 00:26:27;;;;;;;19.55;8.65;;;;;;;8.24;30.37;95750.13;5105043;28;20077;-69
2022/03/25 00:28:52;;;;;;;15.93;8.43;;;;;;;8.19;30.94;95760.47;5106596;28;20020;-69
2022/03/25 00:31:18;;;;;;;13.90;8.27;;;;;;;8.05;31.58;95751.97;5103562;28;20023;-69
2022/03/25 00:33:45;;;;;;;14.35;8.25;;;;;;;7.99;31.72;95758.78;5105893;28;20104;-68
2022/03/25 00:36:11;;;;;;;19.25;10.68;;;;;;;7.92;31.99;95752.38;5104803;28;20472;-68
2022/03/25 00:38:36;;;;;;;19.75;11.18;;;;;;;7.87;31.93;95746.63;5105354;28;20019;-70
2022/03/25 00:41:06;;;;;;;16.33;9.40;;;;;;;7.82;31.61;95751.63;5104098;28;20019;-70
2022/03/25 00:43:32;;;;;;;14.85;8.77;;;;;;;7.81;31.83;95748.09;5104753;28;20027;-69
2022/03/25 00:45:58;;;;;;;16.30;8.90;;;;;;;7.81;31.43;95744.56;5105786;28;20030;-69
2022/03/25 00:48:23;;;;;;;16.50;9.45;;;;;;;7.70;32.09;95741.16;5104947;28;20023;-68
2022/03/25 00:50:49;;;;;;;14.55;9.05;;;;;;;7.63;32.29;95737.38;5105717;28;20248;-69
2022/03/25 00:53:14;;;;;;;15.15;8.70;;;;;;;7.60;32.12;95735.03;5104612;28;20043;-69
2022/03/25 00:55:39;;;;;;;14.68;8.68;;;;;;;7.44;31.94;95727.69;5105220;28;20073;-69
2022/03/25 00:58:05;;;;;;;15.55;8.85;;;;;;;7.39;31.96;95725.47;5104573;28;20048;-70
2022/03/25 01:00:30;;;;;;;17.10;8.93;;;;;;;7.28;32.56;95727.38;5104918;28;20023;-68
2022/03/25 01:02:56;;;;;;;15.15;8.35;;;;;;;7.19;32.75;95730.91;5105278;28;20023;-68
2022/03/25 01:05:21;;;;;;;14.60;7.97;;;;;;;7.15;32.59;95721.53;5104785;28;20055;-69
2022/03/25 01:07:47;;;;;;;14.20;9.15;;;;;;;7.13;32.92;95723.50;5105352;28;20028;-69
2022/03/25 01:10:13;;;;;;;16.38;8.32;;;;;;;7.09;32.58;95716.78;5104590;28;20024;-68
2022/03/25 01:12:38;;;;;;;14.95;8.25;;;;;;;7.11;32.45;95707.63;5107299;28;20157;-68
2022/03/25 01:15:04;;;;;;;10.40;7.85;;;;;;;7.15;32.75;95718.88;5108783;28;20751;-68
2022/03/25 01:17:30;;;;;;;11.35;7.57;;;;;;;7.20;32.35;95716.59;5109216;28;20033;-68
2022/03/25 01:19:55;;;;;;;16.80;8.85;;;;;;;7.16;32.56;95709.88;5108930;28;20020;-69
2022/03/25 01:22:21;;;;;;;12.45;8.00;;;;;;;7.12;32.96;95719.16;5109044;28;20102;-69
2022/03/25 01:24:47;;;;;;;13.93;7.97;;;;;;;7.11;33.02;95712.97;5109186;28;20095;-69
2022/03/25 01:27:12;;;;;;;11.00;8.15;;;;;;;7.08;33.86;95717.78;5108541;28;20065;-70
2022/03/25 01:29:38;;;;;;;13.05;8.23;;;;;;;6.98;33.62;95723.97;5109388;27;20043;-69
2022/03/25 01:32:06;;;;;;;14.55;9.25;;;;;;;6.95;33.27;95726.94;5106911;28;20088;-70
2022/03/25 01:34:33;;;;;;;16.50;9.68;;;;;;;6.95;33.36;95726.13;5109208;28;20618;-68
2022/03/25 01:36:58;;;;;;;16.83;9.48;;;;;;;6.94;32.77;95727.94;5108336;28;20076;-69
2022/03/25 01:39:24;;;;;;;16.23;8.85;;;;;;;6.95;32.82;95731.47;5108933;28;20031;-69
2022/03/25 01:41:49;;;;;;;16.55;10.25;;;;;;;6.85;32.63;95734.97;5108707;28;20031;-69
2022/03/25 01:44:21;;;;;;;16.10;9.20;;;;;;;6.91;32.23;95734.44;5108465;28;20524;-69
2022/03/25 01:46:46;;;;;;;16.73;9.80;;;;;;;6.83;32.66;95736.13;5091376;28;20614;-70
2022/03/25 01:49:13;;;;;;;16.95;10.70;;;;;;;6.80;32.84;95743.41;5108032;28;20023;-68
2022/03/25 01:51:38;;;;;;;17.77;10.27;;;;;;;6.80;32.55;95729.28;5109014;28;20494;-68
2022/03/25 01:54:23;;;;;;;17.25;9.43;;;;;;;6.72;33.07;95732.66;5107820;28;20533;-69
2022/03/25 01:56:57;;;;;;;14.02;9.32;;;;;;;6.75;32.86;95728.88;5107937;28;20101;-69
2022/03/25 01:59:23;;;;;;;15.50;9.25;;;;;;;6.80;32.69;95727.44;5109123;28;20232;-70
2022/03/25 02:01:48;;;;;;;22.75;9.57;;;;;;;6.80;32.91;95724.75;5108052;28;20027;-68
2022/03/25 02:04:14;;;;;;;19.38;8.75;;;;;;;6.71;33.47;95725.63;5109082;28;20054;-69
2022/03/25 02:06:39;;;;;;;14.73;9.48;;;;;;;6.69;32.79;95724.94;5107541;28;20108;-69
2022/03/25 02:09:05;;;;;;;18.08;9.98;;;;;;;6.71;32.67;95730.97;5108242;28;20027;-71
2022/03/25 02:11:31;;;;;;;19.35;9.30;;;;;;;6.73;33.23;95725.50;5089750;28;20064;-70
2022/03/25 02:13:56;;;;;;;17.77;11.40;;;;;;;6.67;33.60;95722.41;5108003;28;20561;-68
2022/03/25 02:16:36;;;;;;;24.10;13.70;;;;;;;6.67;33.00;95726.94;5107089;28;20053;-69
2022/03/25 02:19:02;;;;;;;24.38;13.55;;;;;;;6.66;33.16;95719.91;5107622;28;20060;-68
2022/03/25 02:21:29;;;;;;;27.23;13.73;;;;;;;6.64;33.70;95721.91;5108685;28;20024;-69
2022/03/25 02:23:54;;;;;;;19.17;11.77;;;;;;;6.57;33.51;95715.44;5106430;27;20027;-70
2022/03/25 02:26:20;;;;;;;18.60;10.38;;;;;;;6.57;33.59;95713.63;5106757;28;20050;-68
2022/03/25 02:28:46;;;;;;;20.15;10.07;;;;;;;6.49;33.39;95711.69;5106419;28;20134;-69
2022/03/25 02:31:11;;;;;;;18.35;11.10;;;;;;;6.47;33.41;95716.31;5107952;28;20024;-69
2022/03/25 02:33:37;;;;;;;19.48;10.48;;;;;;;6.36;33.55;95714.66;5107755;28;20108;-68
2022/03/25 02:36:02;;;;;;;19.48;10.52;;;;;;;6.30;33.65;95713.41;5107505;28;20023;-70
2022/03/25 02:38:28;;;;;;;17.40;10.38;;;;;;;6.27;34.19;95715.53;5108114;28;20035;-69
2022/03/25 02:40:53;;;;;;;14.98;9.10;;;;;;;6.24;33.96;95713.16;5107171;28;20035;-70
2022/03/25 02:43:19;;;;;;;18.80;10.13;;;;;;;6.24;34.78;95713.16;5108013;28;20482;-68
2022/03/25 02:45:44;;;;;;;17.52;8.85;;;;;;;6.28;33.99;95702.06;5107245;28;20073;-69
2022/03/25 02:48:11;;;;;;;17.02;8.75;;;;;;;6.36;34.00;95706.69;5107534;28;20470;-68
2022/03/25 02:50:36;;;;;;;13.55;7.65;;;;;;;6.48;33.12;95695.84;5107308;28;20032;-68
2022/03/25 02:53:02;;;;;;;14.60;8.48;;;;;;;6.58;33.53;95693.16;5089205;28;20031;-69
2022/03/25 02:55:28;;;;;;;11.70;7.88;;;;;;;6.71;33.04;95696.31;5106313;28;20081;-70
2022/03/25 02:57:53;;;;;;;13.32;7.50;;;;;;;6.85;32.39;95696.84;5107158;28;20035;-69
2022/03/25 03:00:22;;;;;;;15.88;7.53;;;;;;;7.05;31.94;95697.56;5107853;28;20077;-70
2022/03/25 03:02:48;;;;;;;14.13;8.30;;;;;;;7.22;31.88;95703.94;5105754;28;20059;-70
2022/03/25 03:05:14;;;;;;;11.88;7.40;;;;;;;7.36;31.43;95715.09;5107500;28;20024;-71
2022/03/25 03:07:39;;;;;;;11.63;6.95;;;;;;;7.41;31.51;95702.16;5106647;28;20032;-68
2022/03/25 03:10:05;;;;;;;13.00;7.30;;;;;;;7.57;30.78;95706.81;5106950;28;20343;-70
2022/03/25 03:12:32;;;;;;;12.18;7.55;;;;;;;7.64;30.94;95712.41;5106956;28;20513;-70
2022/03/25 03:14:57;;;;;;;11.73;7.50;;;;;;;7.64;30.96;95709.72;5107055;28;20378;-73
2022/03/25 03:17:23;;;;;;;15.07;8.02;;;;;;;7.69;31.08;95710.09;5107213;28;20081;-69
2022/03/25 03:19:50;;;;;;;14.32;7.35;;;;;;;7.69;31.14;95718.09;5106406;28;20036;-69
2022/03/25 03:22:16;;;;;;;17.92;8.07;;;;;;;7.73;31.15;95716.81;5107213;28;20028;-69
2022/03/25 03:24:41;;;;;;;14.30;7.93;;;;;;;7.72;30.79;95722.31;5106626;28;20077;-70
2022/03/25 03:27:07;;;;;;;12.82;7.88;;;;;;;7.62;31.25;95720.56;5106630;28;20028;-70
2022/03/25 03:29:32;;;;;;;15.45;7.85;;;;;;;7.45;32.29;95724.88;5106720;28;20031;-69
2022/03/25 03:31:58;;;;;;;17.75;9.18;;;;;;;7.26;33.00;95720.47;5106763;28;20019;-70
2022/03/25 03:34:23;;;;;;;14.20;8.20;;;;;;;7.13;33.36;95720.81;5106561;28;20031;-70
2022/03/25 03:36:48;;;;;;;12.30;8.50;;;;;;;6.97;33.13;95722.31;5105261;28;20028;-69
2022/03/25 03:39:14;;;;;;;16.90;9.13;;;;;;;6.85;33.05;95726.16;5107144;28;20027;-70
2022/03/25 03:41:39;;;;;;;18.92;8.57;;;;;;;6.72;33.28;95727.34;5105926;28;20036;-71
2022/03/25 03:44:06;;;;;;;15.18;8.70;;;;;;;6.63;33.80;95730.84;5106788;28;20038;-68
2022/03/25 03:46:31;;;;;;;13.90;9.02;;;;;;;6.51;34.03;95732.88;5105798;28;20034;-70
2022/03/25 03:48:57;;;;;;;22.00;9.65;;;;;;;6.41;34.35;95733.72;5106618;28;20027;-72
2022/03/25 03:51:22;;;;;;;17.15;9.23;;;;;;;6.29;34.70;95730.38;5106033;28;20500;-69
2022/03/25 03:53:48;;;;;;;16.40;9.77;;;;;;;6.30;34.16;95729.38;5106268;28;20027;-68
2022/03/25 03:56:13;;;;;;;16.80;9.50;;;;;;;6.30;34.05;95725.91;5106638;28;20039;-70
2022/03/25 03:58:39;;;;;;;15.00;9.18;;;;;;;6.24;34.12;95729.97;5104877;28;20047;-69
2022/03/25 04:01:05;;;;;;;19.15;9.25;;;;;;;6.26;34.54;95730.66;5106787;28;20211;-72
2022/03/25 04:03:30;;;;;;;16.08;9.07;;;;;;;6.28;33.86;95727.84;5105418;28;20035;-71
2022/03/25 04:05:56;;;;;;;18.23;9.15;;;;;;;6.27;34.48;95728.84;5104581;28;20032;-71
2022/03/25 04:08:23;;;;;;;15.82;9.15;;;;;;;6.27;34.49;95732.34;5104207;28;20516;-70
2022/03/25 04:10:48;;;;;;;13.82;8.95;;;;;;;6.39;33.69;95726.84;5106051;28;20609;-69
2022/03/25 04:13:14;;;;;;;15.57;9.55;;;;;;;6.43;33.19;95738.91;5105976;28;20057;-69
2022/03/25 04:15:39;;;;;;;18.00;9.75;;;;;;;6.51;33.73;95728.34;5105336;28;20406;-69
2022/03/25 04:18:05;;;;;;;16.05;9.07;;;;;;;6.48;33.47;95733.97;5106726;28;20077;-75
2022/03/25 04:20:30;;;;;;;14.50;8.75;;;;;;;6.47;33.82;95729.63;5104962;28;20081;-70
2022/03/25 04:22:56;;;;;;;18.80;9.38;;;;;;;6.52;33.02;95726.53;5106365;28;20054;-70
2022/03/25 04:25:22;;;;;;;14.60;8.98;;;;;;;6.52;33.46;95719.41;5105217;28;20030;-71
2022/03/25 04:27:51;;;;;;;19.10;9.25;;;;;;;6.48;33.66;95728.66;5105658;28;20024;-69
2022/03/25 04:30:18;;;;;;;15.13;9.50;;;;;;;6.39;34.20;95737.50;5105743;28;20509;-70
2022/03/25 04:32:43;;;;;;;18.20;9.65;;;;;;;6.47;33.65;95736.78;5105413;28;20453;-69
2022/03/25 04:35:09;;;;;;;16.92;8.80;;;;;;;6.50;33.28;95734.69;5106122;28;20118;-69
2022/03/25 04:37:35;;;;;;;14.90;8.90;;;;;;;6.64;32.85;95728.03;5104642;28;20490;-69
2022/03/25 04:40:01;;;;;;;17.42;8.90;;;;;;;6.76;33.44;95734.03;5106087;28;20048;-69
2022/03/25 04:42:26;;;;;;;14.52;8.68;;;;;;;6.83;32.96;95733.47;5104550;28;20023;-69
2022/03/25 04:44:53;;;;;;;15.10;8.23;;;;;;;6.90;32.94;95737.25;5105649;27;20027;-69
2022/03/25 04:47:18;;;;;;;15.10;8.57;;;;;;;6.99;32.20;95733.69;5104928;28;20027;-69
2022/03/25 04:49:43;;;;;;;14.77;7.85;;;;;;;7.05;32.49;95734.91;5105136;28;20069;-69
2022/03/25 04:52:10;;;;;;;13.70;7.88;;;;;;;7.15;32.42;95738.38;5105396;28;20051;-69
2022/03/25 04:54:36;;;;;;;15.70;8.88;;;;;;;7.17;32.11;95731.06;5104619;28;20038;-69
2022/03/25 04:57:02;;;;;;;14.15;8.30;;;;;;;7.23;32.39;95740.31;5105708;28;20031;-69
2022/03/25 04:59:28;;;;;;;16.88;10.02;;;;;;;7.02;34.09;95744.06;5104269;28;20472;-71
2022/03/25 05:01:55;;;;;;;19.92;10.93;;;;;;;6.92;34.19;95738.75;5105602;28;20512;-69
2022/03/25 05:04:20;;;;;;;23.92;11.00;;;;;;;6.82;34.57;95743.28;5105056;28;20023;-70
2022/03/25 05:06:46;;;;;;;21.38;11.30;;;;;;;6.70;34.50;95747.97;5103811;28;20057;-69
2022/03/25 05:09:11;;;;;;;32.70;11.43;;;;;;;6.72;34.55;95764.66;5103730;28;20494;-70
2022/03/25 05:11:37;;;;;;;20.80;10.25;;;;;;;6.71;34.23;95760.28;5104542;28;20514;-69
2022/03/25 05:14:03;;;;;;;21.10;10.52;;;;;;;6.76;34.92;95747.38;5105402;28;20042;-68
2022/03/25 05:16:28;;;;;;;24.75;9.85;;;;;;;6.76;34.20;95752.72;5106067;28;20031;-69
2022/03/25 05:18:55;;;;;;;22.45;11.50;;;;;;;6.95;34.71;95748.28;5105806;28;20019;-70
2022/03/25 05:21:20;;;;;;;22.27;10.65;;;;;;;7.15;33.84;95756.22;5104373;28;20051;-69
2022/03/25 05:23:45;;;;;;;18.67;10.80;;;;;;;7.37;33.44;95749.63;5104844;28;20102;-69
2022/03/25 05:26:11;;;;;;;21.27;11.75;;;;;;;7.59;34.00;95752.88;5104902;28;20038;-69
2022/03/25 05:28:37;;;;;;;23.98;12.63;;;;;;;7.70;33.45;95759.84;5103411;28;20176;-69
2022/03/25 05:31:03;;;;;;;26.90;12.38;;;;;;;7.77;33.84;95758.22;5105076;28;20065;-69
2022/03/25 05:33:28;;;;;;;22.33;11.90;;;;;;;7.87;33.42;95754.66;5104753;28;20114;-69
2022/03/25 05:35:53;;;;;;;21.00;9.90;;;;;;;8.11;32.68;95750.53;5105165;28;20024;-68
2022/03/25 05:38:19;;;;;;;15.48;8.00;;;;;;;8.49;30.86;95756.53;5104408;28;20028;-69
2022/03/25 05:40:44;;;;;;;16.17;8.13;;;;;;;8.82;30.20;95749.75;5105088;28;20043;-70
2022/03/25 05:43:10;;;;;;;14.35;8.45;;;;;;;9.22;29.42;95750.94;5104232;28;20138;-70
2022/03/25 05:45:35;;;;;;;12.13;8.30;;;;;;;9.57;29.07;95750.06;5104621;28;20034;-69
2022/03/25 05:48:01;;;;;;;13.07;7.85;;;;;;;9.84;28.61;95756.16;5104522;28;20023;-70
2022/03/25 05:50:26;;;;;;;17.92;8.50;;;;;;;10.13;28.08;95760.22;5104672;28;20038;-68
2022/03/25 05:52:52;;;;;;;16.40;8.15;;;;;;;10.35;27.67;95757.91;5105006;28;20035;-68
2022/03/25 05:55:18;;;;;;;12.82;7.88;;;;;;;10.69;27.45;95762.25;5103021;28;20390;-70
2022/03/25 05:57:43;;;;;;;15.18;8.43;;;;;;;10.88;27.11;95761.03;5103968;28;20031;-70
2022/03/25 06:00:09;;;;;;;14.63;8.38;;;;;;;10.94;27.12;95766.75;5106248;28;20050;-68
2022/03/25 06:02:35;;;;;;;15.70;8.20;;;;;;;11.19;27.26;95763.97;5109273;28;20077;-70
2022/03/25 06:05:00;;;;;;;11.60;8.05;;;;;;;11.29;26.76;95761.09;5107960;28;20478;-70
2022/03/25 06:07:26;;;;;;;15.65;8.63;;;;;;;11.38;27.31;95762.75;5106792;28;20027;-69
2022/03/25 06:09:51;;;;;;;13.48;8.45;;;;;;;11.59;26.78;95764.00;5108219;28;20051;-70
2022/03/25 06:12:17;;;;;;;16.33;8.55;;;;;;;11.84;26.55;95761.19;5107779;28;20510;-69
2022/03/25 06:14:42;;;;;;;14.88;8.25;;;;;;;12.00;26.55;95765.63;5108737;28;20023;-69
2022/03/25 06:17:08;;;;;;;12.77;8.60;;;;;;;12.21;26.27;95770.41;5107292;28;20123;-69
2022/03/25 06:19:33;;;;;;;15.73;8.55;;;;;;;12.47;26.05;95771.03;5108663;28;20382;-69
2022/03/25 06:21:59;;;;;;;15.50;8.18;;;;;;;12.64;26.15;95766.34;5107366;28;20072;-69
2022/03/25 06:24:24;;;;;;;15.02;8.73;;;;;;;12.83;25.91;95772.25;5106871;28;20050;-70
2022/03/25 06:26:51;;;;;;;14.63;9.25;;;;;;;12.96;25.46;95777.81;5107903;28;20405;-69
2022/03/25 06:29:17;;;;;;;18.40;9.45;;;;;;;12.93;25.09;95767.44;5107628;28;20031;-70
2022/03/25 06:31:42;;;;;;;16.98;10.10;;;;;;;13.13;24.69;95774.13;5108091;28;20038;-70
2022/03/25 06:34:08;;;;;;;17.20;9.77;;;;;;;13.17;24.46;95767.38;5107248;28;20028;-69
2022/03/25 06:36:33;;;;;;;18.00;9.38;;;;;;;13.37;24.22;95767.63;5108334;28;20474;-70
2022/03/25 06:38:58;;;;;;;15.07;9.73;;;;;;;13.57;24.08;95776.00;5106786;28;20031;-69
2022/03/25 06:41:24;;;;;;;15.85;9.82;;;;;;;13.75;23.92;95771.25;5107993;28;20019;-70
2022/03/25 06:43:49;;;;;;;14.77;9.23;;;;;;;13.85;23.26;95779.88;5107340;28;20023;-69
2022/03/25 06:46:17;;;;;;;14.45;8.57;;;;;;;13.98;23.23;95783.75;5107079;28;20046;-70
2022/03/25 06:48:42;;;;;;;13.35;9.10;;;;;;;14.09;23.07;95776.00;5106199;28;20058;-69
2022/03/25 06:51:09;;;;;;;18.38;9.10;;;;;;;14.14;22.97;95777.31;5106807;28;20035;-69
2022/03/25 06:53:35;;;;;;;12.48;8.80;;;;;;;14.18;23.14;95776.72;5108306;28;20028;-69
2022/03/25 06:56:01;;;;;;;14.30;8.45;;;;;;;14.32;22.71;95779.53;5107393;28;20122;-71
2022/03/25 06:58:27;;;;;;;18.23;9.13;;;;;;;14.43;22.90;95779.03;5107736;28;20510;-70
2022/03/25 07:00:52;;;;;;;14.45;9.35;;;;;;;14.43;22.71;95773.63;5107355;28;20073;-70
2022/03/25 07:03:18;;;;;;;14.40;9.13;;;;;;;14.53;22.80;95777.88;5107296;28;20562;-71
2022/03/25 07:05:44;;;;;;;13.93;9.88;;;;;;;14.66;22.60;95771.75;5105764;28;20024;-71
2022/03/25 07:08:10;;;;;;;16.23;10.00;;;;;;;14.64;21.94;95773.84;5106823;28;20039;-69
2022/03/25 07:10:36;;;;;;;14.38;9.77;;;;;;;14.67;22.44;95774.25;5105912;28;20024;-70
2022/03/25 07:13:02;;;;;;;15.07;10.23;;;;;;;14.80;22.19;95775.44;5106833;28;20156;-72
2022/03/25 07:15:27;;;;;;;18.27;11.00;;;;;;;14.69;22.03;95779.47;5106211;28;20065;-70
2022/03/25 07:17:52;;;;;;;16.55;10.90;;;;;;;14.91;21.78;95779.47;5106223;28;20024;-70
2022/03/25 07:20:19;;;;;;;23.75;12.48;;;;;;;14.84;21.62;95776.72;5105794;28;20027;-69
2022/03/25 07:22:48;;;;;;;22.33;11.73;;;;;;;14.70;21.87;95771.19;5106795;28;20080;-71
2022/03/25 07:25:14;;;;;;;16.45;11.88;;;;;;;14.78;21.90;95780.19;5106689;27;20080;-70
2022/03/25 07:27:39;;;;;;;17.58;11.60;;;;;;;14.89;21.76;95771.59;5106734;28;20023;-70
2022/03/25 07:30:06;;;;;;;22.67;11.73;;;;;;;14.93;21.98;95775.53;5106538;28;20024;-68
2022/03/25 07:32:31;;;;;;;24.52;11.82;;;;;;;14.96;21.83;95782.41;5106850;27;20577;-72
2022/03/25 07:34:57;;;;;;;27.88;12.93;;;;;;;14.83;22.09;95775.06;5106399;28;20110;-69
2022/03/25 07:37:22;;;;;;;28.83;12.75;;;;;;;14.91;22.07;95779.47;5107064;28;20058;-70
2022/03/25 07:39:48;;;;;;;20.55;11.55;;;;;;;14.76;22.26;95769.56;5106092;28;20440;-70
2022/03/25 07:42:13;;;;;;;17.52;12.10;;;;;;;14.71;22.33;95775.56;5106778;28;20027;-70
2022/03/25 07:44:39;;;;;;;29.55;12.90;;;;;;;14.72;22.39;95773.69;5104928;28;20031;-70
2022/03/25 07:47:05;;;;;;;23.67;13.32;;;;;;;14.67;22.53;95776.97;5106702;27;20467;-68
2022/03/25 07:49:34;;;;;;;20.65;12.82;;;;;;;14.83;22.21;95783.97;5106661;28;20200;-69
2022/03/25 07:52:00;;;;;;;21.48;12.65;;;;;;;15.02;22.02;95770.00;5106261;28;20098;-70
2022/03/25 07:54:25;;;;;;;19.05;13.15;;;;;;;14.88;22.48;95769.88;5106504;28;20035;-69
2022/03/25 07:56:51;;;;;;;20.42;12.68;;;;;;;14.98;21.91;95774.94;5105568;28;20379;-70
2022/03/25 07:59:16;;;;;;;17.92;12.20;;;;;;;15.07;21.96;95771.06;5106197;28;20040;-69
2022/03/25 08:01:41;;;;;;;19.30;12.98;;;;;;;15.13;21.97;95769.47;5105695;28;20100;-70
2022/03/25 08:04:07;;;;;;;41.30;13.77;;;;;;;15.04;21.61;95765.25;5105971;27;20032;-70
2022/03/25 08:06:32;;;;;;;32.63;12.45;;;;;;;15.12;21.60;95759.66;5105657;28;20080;-71
2022/03/25 08:08:59;;;;;;;19.30;12.25;;;;;;;15.31;21.70;95766.22;5105894;28;20020;-69
2022/03/25 08:11:24;;;;;;;19.77;11.02;;;;;;;15.22;21.72;95769.31;5106201;28;20023;-69
2022/03/25 08:13:50;;;;;;;18.55;11.10;;;;;;;15.35;21.43;95755.06;5105640;28;20019;-69
2022/03/25 08:16:16;;;;;;;18.55;10.88;;;;;;;15.44;21.49;95757.38;5106494;28;20061;-69
2022/03/25 08:18:43;;;;;;;23.95;11.23;;;;;;;15.49;20.91;95761.34;5104985;28;20020;-70
2022/03/25 08:21:08;;;;;;;24.75;11.13;;;;;;;15.60;20.74;95749.97;5105676;28;20023;-71
2022/03/25 08:29:02;;;;;;;26.77;10.48;;;;;;;15.36;21.13;95732.38;5106373;28;20031;-70
2022/03/25 08:31:28;;;;;;;21.48;10.50;;;;;;;15.38;20.83;95735.72;5103460;28;20020;-71
2022/03/25 08:33:54;;;;;;;25.23;10.40;;;;;;;15.22;21.17;95742.28;5106029;28;20494;-71
2022/03/25 08:36:19;;;;;;;21.35;10.98;;;;;;;15.24;21.08;95718.59;5105446;28;20054;-69
2022/03/25 08:38:45;;;;;;;17.33;9.98;;;;;;;15.30;21.41;95734.00;5103968;28;20520;-70
2022/03/25 08:41:11;;;;;;;19.35;10.75;;;;;;;15.32;20.86;95726.53;5105737;28;20027;-70
2022/03/25 08:43:36;;;;;;;32.45;11.38;;;;;;;15.36;20.93;95735.94;5104984;28;20031;-70
2022/03/25 08:46:03;;;;;;;38.17;11.27;;;;;;;15.45;20.64;95723.91;5105845;28;20022;-73
2022/03/25 08:48:28;;;;;;;18.92;10.02;;;;;;;15.53;20.69;95727.47;5104926;28;20016;-71
2022/03/25 08:50:54;;;;;;;23.00;10.27;;;;;;;15.52;20.42;95725.81;5105931;28;20023;-70
2022/03/25 08:53:20;;;;;;;20.70;10.68;;;;;;;15.58;20.72;95714.19;5104941;28;20028;-68
2022/03/25 08:55:45;;;;;;;25.88;11.60;;;;;;;15.66;20.75;95730.25;5105371;28;20020;-69
2022/03/25 08:58:11;;;;;;;21.88;10.73;;;;;;;15.65;20.59;95720.44;5105474;28;20032;-69
2022/03/25 09:00:37;;;;;;;20.50;9.77;;;;;;;15.63;20.22;95705.47;5104658;28;20043;-70
2022/03/25 09:03:03;;;;;;;16.92;9.23;;;;;;;15.68;20.66;95714.66;5105769;28;20036;-69
2022/03/25 09:05:28;;;;;;;59.13;12.02;;;;;;;15.57;20.12;95717.94;5105026;28;20023;-70
2022/03/25 09:07:54;;;;;;;18.10;9.50;;;;;;;15.48;20.26;95713.72;5105565;28;20347;-69
2022/03/25 09:10:19;;;;;;;23.80;9.98;;;;;;;15.60;20.30;95716.69;5104618;28;20024;-70
2022/03/25 09:12:45;;;;;;;24.45;10.18;;;;;;;15.66;20.28;95707.75;5105173;28;20035;-70
2022/03/25 09:15:12;;;;;;;15.73;9.02;;;;;;;15.72;20.03;95712.34;5104827;28;20024;-70
2022/03/25 09:17:38;;;;;;;26.55;9.70;;;;;;;15.73;20.08;95705.94;5105341;28;20500;-71
2022/03/25 09:20:05;;;;;;;30.80;10.27;;;;;;;15.70;20.15;95690.94;5104682;28;20039;-70
2022/03/25 09:22:31;;;;;;;19.52;8.73;;;;;;;15.71;19.95;95716.13;5103740;28;20098;-72
2022/03/25 09:24:57;;;;;;;16.02;9.45;;;;;;;15.63;19.59;95717.13;5105482;28;20019;-70
2022/03/25 09:27:22;;;;;;;16.40;8.98;;;;;;;15.62;19.92;95688.41;5104459;28;20107;-71
2022/03/25 09:29:48;;;;;;;26.48;9.32;;;;;;;15.63;19.79;95711.72;5105899;28;20023;-71
2022/03/25 09:32:13;;;;;;;19.02;8.93;;;;;;;15.66;19.79;95696.94;5104220;28;20073;-69
2022/03/25 09:37:23;;;;;;;14.13;8.80;;;;;;;15.94;19.70;95704.94;5109362;28;20116;-73
2022/03/25 09:39:49;;;;;;;15.00;9.10;;;;;;;15.99;19.68;95707.06;5108649;28;20429;-71
2022/03/25 09:42:15;;;;;;;17.33;8.98;;;;;;;16.01;19.72;95701.47;5109983;28;20443;-70
2022/03/25 09:44:41;;;;;;;18.52;9.63;;;;;;;16.04;19.10;95707.28;5106809;28;20554;-70
2022/03/25 09:47:07;;;;;;;17.25;8.40;;;;;;;16.03;19.00;95707.47;5108129;28;20145;-71
2022/03/25 09:49:32;;;;;;;15.15;9.15;;;;;;;15.98;19.05;95691.03;5107294;28;20076;-70
2022/03/25 09:51:58;;;;;;;15.38;8.00;;;;;;;15.93;19.14;95684.34;5108611;28;20090;-70
2022/03/25 09:54:25;;;;;;;15.23;8.13;;;;;;;15.90;18.84;95705.53;5108578;28;20382;-70
2022/03/25 09:56:51;;;;;;;18.30;8.68;;;;;;;15.88;19.29;95703.03;5090185;28;20031;-70
2022/03/25 09:59:19;;;;;;;17.40;8.00;;;;;;;15.97;19.10;95684.78;5108809;28;20035;-74
2022/03/25 10:01:45;;;;;;;15.30;9.55;;;;;;;15.99;18.68;95677.28;5107196;28;20034;-70
2022/03/25 10:04:39;;;;;;;13.63;7.85;;;;;;;15.95;18.46;95703.06;5109342;28;20114;-71
2022/03/25 10:07:23;;;;;;;11.50;7.80;;;;;;;15.97;18.83;95700.16;5107780;28;20027;-70
2022/03/25 10:10:07;;;;;;;11.05;7.07;;;;;;;16.01;18.55;95685.25;5108236;28;20016;-69
2022/03/25 10:12:33;;;;;;;13.68;8.10;;;;;;;16.01;18.63;95691.47;5108963;28;20387;-71
2022/03/25 10:15:15;;;;;;;12.23;8.18;;;;;;;15.98;18.77;95691.88;5107939;28;20509;-71
2022/03/25 10:18:07;;;;;;;12.02;8.32;;;;;;;15.97;18.85;95690.19;5108508;28;20027;-70
2022/03/25 10:20:42;;;;;;;11.95;7.38;;;;;;;16.00;18.66;95691.66;5099202;28;20084;-70
2022/03/25 10:23:13;;;;;;;10.70;7.13;;;;;;;16.03;18.31;95683.13;5107649;28;20032;-70
2022/03/25 10:26:00;;;;;;;18.90;7.90;;;;;;;15.98;18.71;95680.22;5108866;28;20015;-70
2022/03/25 10:28:44;;;;;;;15.55;7.57;;;;;;;15.97;18.39;95675.81;5107682;28;20098;-70
2022/03/25 10:31:14;;;;;;;15.13;7.93;;;;;;;15.90;18.81;95709.09;5108020;28;20104;-69
2022/03/25 10:33:49;;;;;;;11.13;6.90;;;;;;;15.86;18.81;95680.81;5108179;28;20032;-70
2022/03/25 10:36:20;;;;;;;14.05;7.65;;;;;;;15.98;18.97;95691.88;5107307;28;20148;-70
2022/03/25 10:38:54;;;;;;;16.55;6.82;;;;;;;15.86;19.02;95664.56;5108509;28;20121;-70
2022/03/25 10:41:23;;;;;;;15.07;7.45;;;;;;;15.99;19.16;95668.38;5107599;28;20020;-71
2022/03/25 10:43:59;;;;;;;14.60;7.93;;;;;;;16.08;19.09;95686.06;5108004;28;20043;-71
2022/03/25 10:46:41;;;;;;;16.27;7.43;;;;;;;16.03;18.97;95675.88;5106860;27;20107;-71
2022/03/25 10:49:09;;;;;;;11.25;6.75;;;;;;;16.04;18.48;95668.59;5107048;27;20111;-70
2022/03/25 10:51:36;;;;;;;10.48;6.90;;;;;;;16.06;18.70;95680.03;5108088;28;20046;-70
2022/03/25 10:54:07;;;;;;;10.90;7.25;;;;;;;16.07;18.62;95679.00;5106875;28;20509;-69
2022/03/25 10:56:55;;;;;;;12.18;7.53;;;;;;;16.12;18.16;95676.50;5106513;28;20103;-69
2022/03/25 10:59:26;;;;;;;10.10;6.53;;;;;;;16.15;18.39;95680.66;5107121;28;20040;-70
2022/03/25 11:01:56;;;;;;;16.42;7.70;;;;;;;16.13;18.49;95677.34;5107521;28;20401;-69
2022/03/25 11:04:22;;;;;;;13.80;7.05;;;;;;;16.15;18.78;95675.25;5106238;28;20080;-72
2022/03/25 11:06:48;;;;;;;10.45;6.80;;;;;;;16.20;18.63;95651.13;5105751;28;20069;-73
2022/03/25 11:09:14;;;;;;;15.18;7.00;;;;;;;16.17;18.20;95657.78;5107987;28;20020;-73
2022/03/25 11:11:47;;;;;;;16.75;7.40;;;;;;;16.28;18.61;95669.03;5106770;28;20561;-71
2022/03/25 11:14:13;;;;;;;15.90;7.18;;;;;;;16.27;18.45;95661.94;5107133;28;20047;-71
2022/03/25 11:16:46;;;;;;;13.73;7.07;;;;;;;16.41;18.52;95677.13;5107243;28;20030;-73
2022/03/25 11:19:11;;;;;;;;;;;;;;;16.39;18.20;95665.72;5088982;28;20024;-69
2022/03/25 11:21:46;;;;;;;10.82;6.63;;;;;;;16.38;18.39;95661.31;5107670;28;19918;-72
2022/03/25 11:24:24;;;;;;;12.60;6.70;;;;;;;16.50;18.54;95653.41;5106683;27;20095;-71
2022/03/25 11:26:50;;;;;;;9.52;6.32;;;;;;;16.52;18.56;95640.47;5089702;28;20024;-70
2022/03/25 11:29:16;;;;;;;10.63;6.35;;;;;;;16.65;17.67;95642.34;5104998;28;20462;-70
2022/03/25 11:32:08;;;;;;;11.88;6.30;;;;;;;16.73;17.94;95654.00;5106695;28;20513;-70
2022/03/25 11:34:45;;;;;;;12.50;6.50;;;;;;;16.71;17.90;95645.25;5106931;28;20490;-70